Surface observations / UK / EGBB

Quebec | Canada | USA | France | UK | Europe | Elsewhere

Display: Info & Location for EGBB | Help decoding METAR

EGBB BIRMINGHAM AIRPORT -- UK
Raw surface observations for station EGBB
EGBB 191750Z 25010KT CAVOK 06/01 Q1018=
EGBB 191720Z 26012KT CAVOK 07/01 Q1018=
EGBB 191650Z 26012KT CAVOK 07/01 Q1017=
EGBB 191620Z 26013KT CAVOK 07/01 Q1017=
EGBB 191550Z 27012KT 9999 FEW035 07/01 Q1016=
EGBB 191420Z 27013KT 9999 SCT040 08/01 Q1015=
EGBB 191350Z 28012KT 9999 SCT032 08/01 Q1015=
EGBB 191320Z AUTO 27011KT 9999 FEW009/// SCT036/// BKN043/// 08/02 Q1015=
EGBB 191250Z 28011KT 9999 SCT030 SCT044 08/01 Q1015=
EGBB 191220Z 27010KT 230V310 9999 SCT032 SCT036 08/02 Q1014=
EGBB 191150Z 26012KT 230V290 9999 SCT032 08/02 Q1014=
EGBB 191120Z 25007KT 210V290 9999 FEW030 07/02 Q1014=
EGBB 191050Z 25008KT CAVOK 07/02 Q1014=
EGBB 191020Z 25008KT 190V280 CAVOK 07/02 Q1013=
EGBB 190950Z 24006KT 200V270 CAVOK 07/01 Q1013=
EGBB 190920Z 26008KT 220V290 CAVOK 07/01 Q1012=
EGBB 190850Z 24005KT 210V270 CAVOK 06/02 Q1012=
EGBB 190820Z 25007KT 190V280 CAVOK 07/02 Q1011=
EGBB 190750Z 28008KT 9999 FEW029 07/02 Q1011=
EGBB 190720Z 28008KT 9999 SCT024 BKN032 07/03 Q1010=
EGBB 190650Z 27008KT 9999 BKN025 08/04 Q1009=
EGBB 190620Z 27007KT 220V290 9999 BKN038 08/05 Q1009=
EGBB 190550Z 28008KT 9999 BKN041 09/06 Q1008=
EGBB 190520Z 28007KT 9999 SCT020 BKN046 09/07 Q1008=
EGBB 190450Z 29009KT 9999 SCT010 BKN035 09/07 Q1007=
EGBB 190420Z 30008KT 7000 3000S -RA BKN010 09/08 Q1007=
EGBB 190350Z AUTO 33009KT 9999 -RA BKN008/// BKN013/// BKN017/// 09/08 Q1007=
EGBB 190320Z AUTO 30011KT 6000 -RA FEW022/// BKN040/// 10/09 Q1006 RERA=
EGBB 190250Z AUTO 29012KT 2500 -RA FEW008/// BKN013/// BKN018/// 10/09 Q1006 RERA=
EGBB 190220Z AUTO 22009KT 180V250 1300 RA SCT010/// BKN015/// OVC020/// 12/11 Q1005 RERA=
EGBB 190150Z AUTO 22009KT 190V260 9999 -RA BKN017/// OVC025/// 12/11 Q1005 RERA=
EGBB 190120Z AUTO 22008KT 190V270 9999 -RA FEW012/// BKN016/// OVC022/// 12/11 Q1005 RERA=
EGBB 190050Z AUTO 21007KT 170V260 9999 -RA SCT011/// BKN016/// OVC023/// 12/11 Q1005 RERA=
EGBB 190020Z AUTO 20008KT 170V240 9999 -RA SCT012/// BKN017/// OVC023/// 12/11 Q1005=
EGBB 182350Z 21007KT 170V230 9999 -RA BKN019 OVC024 12/11 Q1006=
EGBB 182320Z 20007KT 160V240 9999 -RA BKN020 12/10 Q1006=
EGBB 182250Z AUTO 21009KT 180V250 5000 -RA BKN020/// OVC026/// 13/10 Q1006=
EGBB 182220Z AUTO 19006KT 160V250 9999 OVC021/// 13/10 Q1006=
EGBB 182150Z 21010KT 9999 BKN020 13/10 Q1006=
EGBB 182120Z 22010KT 180V250 9999 BKN021 13/10 Q1006=
EGBB 182050Z 21009KT 170V240 9999 -RA OVC021 13/10 Q1006=
EGBB 182020Z 22012KT 200V260 9999 BKN019 13/10 Q1006=
EGBB 181950Z 23011KT 190V270 9999 BKN019 13/10 Q1006=
EGBB 181920Z 23011KT 190V270 9999 BKN017 OVC023 13/10 Q1006=
EGBB 181850Z 24012KT 180V290 9999 BKN020 OVC026 13/09 Q1006=
EGBB 181820Z 23012KT 200V280 9999 BKN021 13/09 Q1006=